createdAt,value
2023-03-26T00:04:28.068Z,7.60
2023-03-26T00:09:48.971Z,7.65
2023-03-26T00:15:10.541Z,7.64
2023-03-26T00:20:34.687Z,7.62
2023-03-26T00:25:56.791Z,7.71
2023-03-26T00:31:18.160Z,7.75
2023-03-26T00:36:39.060Z,7.71
2023-03-26T00:41:59.679Z,7.67
2023-03-26T00:47:21.324Z,7.61
2023-03-26T00:52:45.051Z,7.65
2023-03-26T00:58:06.330Z,7.66
2023-03-26T01:03:33.826Z,7.69
2023-03-26T01:09:00.416Z,7.69
2023-03-26T01:14:25.068Z,7.73
2023-03-26T01:20:13.246Z,7.75
2023-03-26T01:25:43.292Z,7.76
2023-03-26T01:31:14.161Z,7.76
2023-03-26T01:36:44.670Z,7.74
2023-03-26T01:42:21.613Z,7.66
2023-03-26T01:47:44.034Z,7.60
2023-03-26T01:53:06.161Z,7.54
2023-03-26T01:58:41.710Z,7.43
2023-03-26T02:04:11.572Z,7.39
2023-03-26T02:09:39.293Z,7.41
2023-03-26T02:15:01.895Z,7.39
2023-03-26T02:20:22.986Z,7.38
2023-03-26T02:25:43.922Z,7.38
2023-03-26T02:31:05.643Z,7.42
2023-03-26T02:36:30.296Z,7.40
2023-03-26T02:41:54.666Z,7.41
2023-03-26T02:47:15.908Z,7.38
2023-03-26T02:52:49.092Z,7.41
2023-03-26T02:58:12.308Z,7.42
2023-03-26T03:03:34.602Z,7.46
2023-03-26T03:09:19.056Z,7.44
2023-03-26T03:14:58.546Z,7.53
2023-03-26T03:20:19.437Z,7.55
2023-03-26T03:25:41.711Z,7.53
2023-03-26T03:31:03.631Z,7.50
2023-03-26T03:36:28.004Z,7.45
2023-03-26T03:41:59.020Z,7.50
2023-03-26T03:47:20.438Z,7.49
2023-03-26T03:52:41.804Z,7.49
2023-03-26T03:58:03.853Z,7.50
2023-03-26T04:03:33.930Z,7.46
2023-03-26T04:08:58.455Z,7.40
2023-03-26T04:14:20.124Z,7.38
2023-03-26T04:20:14.929Z,7.29
2023-03-26T04:25:39.466Z,7.27
2023-03-26T04:31:29.136Z,7.20
2023-03-26T04:36:54.679Z,7.21
2023-03-26T04:42:20.088Z,7.28
2023-03-26T04:48:02.391Z,7.27
2023-03-26T04:53:24.266Z,7.28
2023-03-26T04:59:25.999Z,7.30
2023-03-26T05:04:50.036Z,7.30
2023-03-26T05:10:15.345Z,7.32
2023-03-26T05:16:05.947Z,7.38
2023-03-26T05:21:42.462Z,7.43
2023-03-26T05:27:03.531Z,7.37
2023-03-26T05:32:36.570Z,7.43
2023-03-26T05:37:58.242Z,7.48
2023-03-26T05:43:19.886Z,7.56
2023-03-26T05:48:48.053Z,7.53
2023-03-26T05:54:09.208Z,7.47
2023-03-26T05:59:48.504Z,7.45
2023-03-26T06:05:43.062Z,7.46
2023-03-26T06:11:12.619Z,7.57
2023-03-26T06:16:33.833Z,7.65
2023-03-26T06:22:14.581Z,7.71
2023-03-26T06:27:54.469Z,7.81
2023-03-26T06:33:48.797Z,7.82
2023-03-26T06:39:10.216Z,8.23
2023-03-26T06:44:37.614Z,8.42
2023-03-26T06:50:17.023Z,8.50
2023-03-26T06:55:49.969Z,8.34
2023-03-26T07:01:16.937Z,8.21
2023-03-26T07:06:56.581Z,8.32
2023-03-26T07:12:36.244Z,8.25
2023-03-26T07:18:17.375Z,8.32
2023-03-26T07:23:39.963Z,8.20
2023-03-26T07:29:45.403Z,8.08
2023-03-26T07:35:49.104Z,8.09
2023-03-26T07:41:50.494Z,8.20
2023-03-26T07:47:33.849Z,8.31
2023-03-26T07:53:17.087Z,8.50
2023-03-26T07:59:22.396Z,8.79
2023-03-26T08:05:20.127Z,8.98
2023-03-26T08:11:40.927Z,9.26
2023-03-26T08:17:40.628Z,9.19
2023-03-26T08:23:12.075Z,9.06
2023-03-26T08:28:46.008Z,9.10
2023-03-26T08:34:11.496Z,9.11
2023-03-26T08:39:32.244Z,9.09
2023-03-26T08:45:30.367Z,9.13
2023-03-26T08:51:05.240Z,9.10
2023-03-26T08:56:49.428Z,9.22
2023-03-26T09:02:53.387Z,9.44
2023-03-26T09:08:14.135Z,9.75
2023-03-26T09:13:53.314Z,10.06
2023-03-26T09:19:44.451Z,10.37
2023-03-26T09:25:41.615Z,10.52
2023-03-26T09:31:36.450Z,10.81
2023-03-26T09:37:14.342Z,10.81
2023-03-26T09:42:53.705Z,10.92
2023-03-26T09:48:54.193Z,10.86
2023-03-26T09:54:30.844Z,10.94
2023-03-26T10:00:16.654Z,10.89
2023-03-26T10:05:52.747Z,10.93
2023-03-26T10:11:27.000Z,10.92
2023-03-26T10:17:33.831Z,10.80
2023-03-26T10:23:12.967Z,10.73
2023-03-26T10:28:52.724Z,10.61
2023-03-26T10:34:35.118Z,10.46
2023-03-26T10:40:28.509Z,10.47
2023-03-26T10:46:22.884Z,10.59
2023-03-26T10:51:56.040Z,10.89
2023-03-26T10:57:34.694Z,11.09
2023-03-26T11:03:20.388Z,11.09
2023-03-26T11:08:52.827Z,11.08
2023-03-26T11:14:42.602Z,10.98
2023-03-26T11:20:07.606Z,10.93
2023-03-26T11:25:43.490Z,10.97
2023-03-26T11:31:13.398Z,11.11
2023-03-26T11:36:41.313Z,11.12
2023-03-26T11:42:12.679Z,11.08
2023-03-26T11:47:44.957Z,11.10
2023-03-26T11:53:18.016Z,11.03
2023-03-26T11:58:50.265Z,11.03
2023-03-26T12:04:14.629Z,11.03
2023-03-26T12:09:35.524Z,10.99
2023-03-26T12:14:56.346Z,11.07
2023-03-26T12:20:26.231Z,11.09
2023-03-26T12:26:05.663Z,11.04
2023-03-26T12:31:26.658Z,10.91
2023-03-26T12:36:56.601Z,10.70
2023-03-26T12:44:44.082Z,10.51
2023-03-26T12:48:09.967Z,10.33
2023-03-26T12:53:57.836Z,10.34
2023-03-26T12:59:24.363Z,10.44
2023-03-26T13:05:06.062Z,10.41
2023-03-26T13:11:12.628Z,10.24
2023-03-26T13:16:45.193Z,10.02
2023-03-26T13:22:24.837Z,10.00
2023-03-26T13:27:56.008Z,9.93
2023-03-26T13:33:45.042Z,9.92
2023-03-26T13:39:37.771Z,9.75
2023-03-26T13:45:05.701Z,9.70
2023-03-26T13:50:35.617Z,9.72
2023-03-26T13:55:59.685Z,9.69
2023-03-26T14:01:46.097Z,9.74
2023-03-26T14:07:29.030Z,9.73
2023-03-26T14:12:57.577Z,9.70
2023-03-26T14:18:44.262Z,9.70
2023-03-26T14:24:34.716Z,9.60
2023-03-26T14:30:23.253Z,9.47
2023-03-26T14:36:02.719Z,9.64
2023-03-26T14:41:27.904Z,10.01
2023-03-26T14:46:48.848Z,9.93
2023-03-26T14:52:31.266Z,9.74
2023-03-26T14:58:16.522Z,9.60
2023-03-26T15:03:59.182Z,9.41
2023-03-26T15:09:46.326Z,9.24
2023-03-26T15:15:28.706Z,9.37
2023-03-26T15:21:20.206Z,9.35
2023-03-26T15:26:47.226Z,9.02
2023-03-26T15:32:30.305Z,8.84
2023-03-26T15:38:06.168Z,8.54
2023-03-26T15:44:05.065Z,8.35
2023-03-26T15:49:42.747Z,8.21
2023-03-26T15:55:21.494Z,8.24
2023-03-26T16:00:56.126Z,8.34
2023-03-26T16:06:46.574Z,8.54
2023-03-26T16:12:16.436Z,8.58
2023-03-26T16:18:19.518Z,8.35
2023-03-26T16:23:47.763Z,8.27
2023-03-26T16:29:18.362Z,8.46
2023-03-26T16:34:57.333Z,8.36
2023-03-26T16:40:18.212Z,8.43
2023-03-26T16:45:58.104Z,8.46
2023-03-26T16:51:49.392Z,8.42
2023-03-26T16:57:24.682Z,8.44
2023-03-26T17:03:17.896Z,8.51
2023-03-26T17:08:39.145Z,8.44
2023-03-26T17:14:14.159Z,8.37
2023-03-26T17:19:41.965Z,8.46
2023-03-26T17:25:21.637Z,8.35
2023-03-26T17:31:23.807Z,8.41
2023-03-26T17:36:46.016Z,8.51
2023-03-26T17:42:16.133Z,8.59
2023-03-26T17:48:15.555Z,8.87
2023-03-26T17:53:37.844Z,9.39
2023-03-26T17:59:11.526Z,9.32
2023-03-26T18:04:39.418Z,9.21
2023-03-26T18:10:34.572Z,9.17
2023-03-26T18:16:01.470Z,9.10
2023-03-26T18:21:28.607Z,9.01
2023-03-26T18:26:55.445Z,8.99
2023-03-26T18:32:22.290Z,8.99
2023-03-26T18:37:46.022Z,8.96
2023-03-26T18:43:28.579Z,8.93
2023-03-26T18:48:55.735Z,8.88
2023-03-26T18:54:19.633Z,8.71
2023-03-26T18:59:45.242Z,8.50
2023-03-26T19:05:07.564Z,8.46
2023-03-26T19:10:28.954Z,8.32
2023-03-26T19:15:52.150Z,8.19
2023-03-26T19:21:14.732Z,8.11
2023-03-26T19:26:36.744Z,8.09
2023-03-26T19:32:20.649Z,8.42
2023-03-26T19:37:55.370Z,8.18
2023-03-26T19:43:17.423Z,7.84
2023-03-26T19:48:45.760Z,7.72
2023-03-26T19:54:16.426Z,7.64
2023-03-26T19:59:37.087Z,7.57
2023-03-26T20:04:57.951Z,7.43
2023-03-26T20:10:18.960Z,7.48
2023-03-26T20:15:40.941Z,7.41
2023-03-26T20:21:02.367Z,7.30
2023-03-26T20:26:24.260Z,7.29
2023-03-26T20:31:46.078Z,7.33
2023-03-26T20:37:07.127Z,7.26
2023-03-26T20:42:28.048Z,7.13
2023-03-26T20:47:50.586Z,7.17
2023-03-26T20:53:16.513Z,7.08
2023-03-26T20:58:39.175Z,7.09
2023-03-26T21:04:00.168Z,7.21
2023-03-26T21:09:25.257Z,7.24
2023-03-26T21:14:46.725Z,7.17
2023-03-26T21:20:13.489Z,7.12
2023-03-26T21:25:54.092Z,7.13
2023-03-26T21:31:20.248Z,7.36
2023-03-26T21:36:42.037Z,7.36
2023-03-26T21:42:04.720Z,7.39
2023-03-26T21:47:27.074Z,7.30
2023-03-26T21:52:51.016Z,7.29
2023-03-26T21:58:52.475Z,7.30
2023-03-26T22:04:34.808Z,7.27
2023-03-26T22:09:55.856Z,7.15
2023-03-26T22:15:18.474Z,7.14
2023-03-26T22:20:39.553Z,7.19
2023-03-26T22:26:00.469Z,7.08
2023-03-26T22:31:21.326Z,7.01
2023-03-26T22:36:42.117Z,7.04
2023-03-26T22:42:03.859Z,7.05
2023-03-26T22:47:25.010Z,7.08
2023-03-26T22:52:46.260Z,7.22
2023-03-26T22:58:06.916Z,7.22
2023-03-26T23:03:35.108Z,7.08
2023-03-26T23:08:57.079Z,7.06
2023-03-26T23:14:19.121Z,6.92
2023-03-26T23:19:40.076Z,6.81
2023-03-26T23:25:00.980Z,6.70
2023-03-26T23:30:21.743Z,6.67
2023-03-26T23:35:44.241Z,6.56
2023-03-26T23:41:06.171Z,6.45
2023-03-26T23:46:34.802Z,6.56
2023-03-26T23:51:55.738Z,6.80
2023-03-26T23:57:18.469Z,7.01
